x

Gulf Of Maine - 78 Nm East Of Portsmouth, Nh (44005) Wave Buoy

4:50am - Sun 31st Jul 2016 All times are EDT. -4 hours from GMT.

  • Sig Wave height 2.3ft
  • Swell Direction
  • Peak Period 7s
  • Average Period 6s
  • Wind
    7mph
  • Sea Temp 72°f
  • 空気 Temp 72°f
  • Sea Pressure 1018mb
  • Gulf Of Maine - 78 Nm East Of Portsmouth, Nh
  • Gulf Of Maine - 78 Nm East Of Portsmouth, Nh

More Historic Weather Station data

Upgrade to MSW Pro to gain access to the past 30 days of data for over 8000 Wavebouys and Weather Stations around the globe.

Join Pro

Comparision Forecast

View Surf forecast
   
Sun 07/31 4:50am 2.5ft 7s 6s 7
mph
1018mb 72f 72f
3:50am 2.5ft 7s 6s 7 9 mph 1018.1mb 72f 71f
2:50am 2ft 7s 6s 7
mph
1018mb 72f 72f
1:50am 2ft 7s 6s 4
mph
1018.4mb 72f 72f
12:50am 2ft 8s 6s 9
mph
1018.2mb 73f 73f
Sat 07/30 11:50pm 2ft 8s 6s 4
mph
1018.1mb 73f 73f
10:50pm 2ft 8s 6s 7 9 mph 1017.9mb 72f 73f
9:50pm 2ft 8s 6s 7
mph
1018mb 72f 73f
8:50pm 2.5ft 8s 6s 9
mph
1017.5mb 72f 73f
7:50pm 2.5ft 8s 6s 7
mph
1016.8mb 73f 73f
6:50pm 2.5ft 8s 7s 7 9 mph 1016.6mb 73f 73f
5:50pm 2ft 8s 6s 7 9 mph 1016.2mb 73f 73f
4:50pm 1.6ft 6s 6s 7 9 mph 1016.4mb 73f 73f
3:50pm 1.3ft 8s 5s 7 9 mph 1016.7mb 74f 72f
2:50pm 1.6ft 8s 5s 4 7 mph 1016.9mb 73f 72f
1:50pm 1.6ft 8s 5s 4
mph
1017.1mb 73f 71f
12:50pm 1.6ft 8s 4s 7
mph
1016.9mb 72f 71f
11:50am 1.6ft 4s 4s 9 11 mph 1016.5mb 72f 70f
10:50am 2ft 3s 4s 11
mph
1016mb 72f 70f
9:50am 2ft 4s 4s 16
mph
1015.4mb 72f 69f
8:50am 1.6ft 3s 3s 13 18 mph 1015.4mb 72f 70f
7:50am 1.6ft 3s 3s 13 16 mph 1014.8mb 72f 70f
6:50am 1.3ft 13s 4s 16 18 mph 1014.1mb 72f 70f
5:50am 1.3ft 7s 4s 13 16 mph 1013.7mb 72f 68f
4:50am 1.3ft 7s 6s 13 16 mph 1013.2mb 72f 68f
3:50am 1.3ft 7s 6s 9 11 mph 1013.1mb 72f 67f
2:50am 1.3ft 8s 6s 7 9 mph 1012.9mb 72f 67f
1:50am 1.3ft 7s 6s 7 9 mph 1012.6mb 72f 67f
12:50am 1ft 8s 5s 9 11 mph 1012.4mb 72f 68f
Fri 07/29 11:50pm 1.3ft 14s 6s 7
mph
1012.5mb 72f 68f
10:50pm 1.3ft 14s 5s 4
mph
1012.1mb 73f 68f
9:50pm 1.3ft 14s 5s 4 7 mph 1012mb 73f 69f
8:50pm 1.3ft 13s 5s 7 9 mph 1011.5mb 73f 69f
7:50pm 1.3ft 6s 5s 9 11 mph 1010.8mb 73f 69f
6:50pm 1.3ft 7s 4s 9
mph
1010.5mb 73f 70f
5:50pm 1.3ft 6s 4s 7 9 mph 1010.4mb 73f 70f
4:50pm 1.3ft 6s 5s 9 11 mph 1010.8mb 73f 70f
3:50pm 1.3ft 6s 5s 7 11 mph 1010.6mb 73f 71f
2:50pm 1.3ft 8s 4s  -  2 mph 1010.8mb 73f 71f
1:50pm 1.3ft 7s 5s 4 7 mph 1011.2mb 73f 71f
12:50pm 1.6ft 4s 4s 2 4 mph 1011.9mb 73f 71f
11:50am 1.6ft 4s 4s 2
mph
1012.1mb 73f 71f
10:50am 2ft 4s 4s  -  2 mph 1011.6mb 72f 71f
9:50am 2ft 4s 4s 4
mph
1010.9mb 72f 71f
8:50am 2ft 4s 4s 4 7 mph 1011.4mb 72f 71f
7:50am 2.5ft 5s 4s 9 11 mph 1011.9mb 72f 71f
6:50am 2ft 5s 4s 9 11 mph 1010.9mb 72f 71f
5:50am 2.5ft 5s 4s 9
mph
1011mb 72f 71f
4:50am 2.5ft 5s 4s 9 11 mph 1010.9mb 72f 72f
3:50am 2.5ft 5s 4s 11 13 mph 1011.2mb 72f 72f
2:50am 2.5ft 5s 4s 13 16 mph 1011.1mb 72f 72f
1:50am 2.5ft 5s 4s 13 16 mph 1011.1mb 72f 73f
12:50am 2.5ft 5s 4s 11 13 mph 1011.5mb 72f 73f
Thu 07/28 11:50pm 2.5ft 5s 4s 13
mph
1011.8mb 72f 73f
10:50pm 2.5ft 5s 4s 7 9 mph 1012.2mb 72f 75f
9:50pm 2.5ft 4s 4s 7 9 mph 1012.3mb 72f 75f
8:50pm 2ft 4s 4s 16 18 mph 1011.4mb 72f 74f
6:50pm 1.6ft 3s 4s 13 16 mph 1010.8mb 73f 74f
5:50pm 1.6ft 6s 4s 16 18 mph 1010.4mb 73f 73f
4:50pm 1.6ft 6s 4s 13 16 mph 1010.1mb 73f 73f
3:50pm 1.6ft 6s 4s 13
mph
1010.7mb 73f 73f
1:50pm 1.3ft 6s 4s 11 13 mph 1011.6mb 73f 73f
12:50pm 1.3ft 7s 4s 11
mph
1012.2mb 72f 72f
11:50am 1.3ft 7s 4s 11
mph
1012.5mb 72f 72f
10:50am 1.3ft 7s 5s 9 11 mph 1012.7mb 72f 72f
9:50am 1.3ft 7s 4s 9
mph
1012.6mb 71f 72f
8:50am 1.3ft 7s 4s 9
mph
1012.4mb 71f 71f
7:50am 1.6ft 7s 4s 9 11 mph 1012.3mb 71f 71f
6:50am 1.3ft 7s 5s 9 11 mph 1012.2mb 71f 71f
5:50am 1.3ft 6s 4s 7
mph
1012.2mb 71f 71f
4:50am 1.6ft 6s 5s 7 9 mph 1012mb 71f 71f
3:50am 1.6ft 6s 4s 7 9 mph 1011.9mb 71f 71f
2:50am 1.6ft 7s 4s 9
mph
1011.7mb 71f 72f
1:50am 1.6ft 6s 4s 9
mph
1012.2mb 71f 72f
12:50am 1.6ft 7s 4s 9 11 mph 1012.3mb 71f 72f
Wed 07/27 11:50pm 1.6ft 7s 4s 11 13 mph 1012.6mb 71f 72f
10:50pm 1.6ft 7s 4s 11 13 mph 1012.5mb 71f 72f
9:50pm 1.6ft 8s 5s 11 13 mph 1012.2mb 72f 72f
8:50pm 1.6ft 7s 5s 11 13 mph 1012.2mb 72f 72f
7:50pm 1.6ft 7s 5s 9 11 mph 1011.9mb 72f 73f
6:50pm 1.6ft 6s 5s 9 11 mph 1011.9mb 73f 73f
5:50pm 1.6ft 6s 6s 11 13 mph 1011.8mb 74f 74f
4:50pm 1.6ft 6s 6s 9 11 mph 1011.9mb 75f 74f
3:50pm 2ft 7s 6s 7
mph
1012.2mb 75f 74f
2:50pm 2ft 7s 6s 2
mph
1012.8mb 74f 74f
1:50pm 1.6ft 7s 6s 4
mph
1013.1mb 73f 73f
12:50pm 1.6ft 8s 6s 7
mph
1013.4mb 73f 72f
11:50am 1.6ft 7s 6s 7
mph
1013.4mb 72f 72f
10:50am 1.6ft 8s 6s 7
mph
1013.2mb 72f 71f